createdAt,value
2018-03-16T00:01:05.983Z,93227.66
2018-03-16T00:03:33.566Z,93230.10
2018-03-16T00:06:01.111Z,93222.06
2018-03-16T00:08:28.654Z,93220.31
2018-03-16T00:10:56.224Z,93215.35
2018-03-16T00:13:23.783Z,93212.45
2018-03-16T00:15:51.334Z,93203.34
2018-03-16T00:18:19.209Z,93211.58
2018-03-16T00:20:46.751Z,93206.19
2018-03-16T00:23:14.291Z,93208.22
2018-03-16T00:25:42.167Z,93196.98
2018-03-16T00:28:09.734Z,93198.65
2018-03-16T00:30:37.289Z,93193.31
2018-03-16T00:33:04.871Z,93185.50
2018-03-16T00:35:32.456Z,93196.31
2018-03-16T00:37:59.999Z,93192.95
2018-03-16T00:40:27.597Z,93189.63
2018-03-16T00:42:55.160Z,93189.53
2018-03-16T00:45:22.701Z,93194.41
2018-03-16T00:47:50.582Z,93189.41
2018-03-16T00:50:18.134Z,93191.89
2018-03-16T00:52:45.715Z,93184.78
2018-03-16T00:55:13.461Z,93186.77
2018-03-16T00:57:41.069Z,93190.08
2018-03-16T01:00:08.608Z,93191.38
2018-03-16T01:02:36.172Z,93184.39
2018-03-16T01:05:03.764Z,93181.11
2018-03-16T01:07:31.320Z,93173.20
2018-03-16T01:09:58.893Z,93175.69
2018-03-16T01:12:26.465Z,93178.99
2018-03-16T01:14:54.013Z,93180.61
2018-03-16T01:17:21.609Z,93181.57
2018-03-16T01:19:49.148Z,93183.69
2018-03-16T01:22:16.689Z,93187.73
2018-03-16T01:24:44.262Z,93191.88
2018-03-16T01:27:11.810Z,93191.47
2018-03-16T01:29:39.366Z,93178.99
2018-03-16T01:32:06.960Z,93190.91
2018-03-16T01:34:34.514Z,93193.41
2018-03-16T01:37:02.059Z,93189.78
2018-03-16T01:39:29.736Z,93191.74
2018-03-16T01:41:57.282Z,93202.53
2018-03-16T01:44:24.840Z,93209.25
2018-03-16T01:46:52.426Z,93203.91
2018-03-16T01:49:19.966Z,93203.96
2018-03-16T01:51:47.522Z,93204.84
2018-03-16T01:54:15.242Z,93204.79
2018-03-16T01:56:42.788Z,93207.27
2018-03-16T01:59:10.331Z,93199.45
2018-03-16T02:01:37.907Z,93200.60
2018-03-16T02:04:05.455Z,93190.09
2018-03-16T02:06:33.006Z,93201.22
2018-03-16T02:09:00.884Z,93196.27
2018-03-16T02:11:28.450Z,93193.72
2018-03-16T02:13:56.885Z,93182.17
2018-03-16T02:16:24.457Z,93170.88
2018-03-16T02:18:52.014Z,93179.43
2018-03-16T02:21:19.573Z,93185.75
2018-03-16T02:23:47.290Z,93181.98
2018-03-16T02:26:14.838Z,93169.90
2018-03-16T02:28:42.400Z,93171.09
2018-03-16T02:31:09.991Z,93178.23
2018-03-16T02:33:37.544Z,93171.23
2018-03-16T02:36:05.097Z,93172.95
2018-03-16T02:38:32.779Z,93173.31
2018-03-16T02:41:00.316Z,93167.11
2018-03-16T02:43:27.871Z,93167.37
2018-03-16T02:45:55.463Z,93174.83
2018-03-16T02:48:23.021Z,93170.26
2018-03-16T02:50:50.567Z,93161.68
2018-03-16T02:53:19.203Z,93163.84
2018-03-16T02:55:46.758Z,93176.33
2018-03-16T02:58:14.306Z,93173.44
2018-03-16T03:00:42.029Z,93184.19
2018-03-16T03:03:09.579Z,93187.51
2018-03-16T03:05:37.127Z,93180.06
2018-03-16T03:08:04.674Z,93182.13
2018-03-16T03:10:32.229Z,93190.41
2018-03-16T03:13:00.129Z,93186.64
2018-03-16T03:15:27.671Z,93178.23
2018-03-16T03:17:55.221Z,93181.23
2018-03-16T03:20:22.801Z,93175.86
2018-03-16T03:22:50.346Z,93169.17
2018-03-16T03:25:17.895Z,93174.87
2018-03-16T03:27:45.574Z,93174.05
2018-03-16T03:30:13.124Z,93175.23
2018-03-16T03:32:40.682Z,93170.26
2018-03-16T03:35:08.271Z,93174.05
2018-03-16T03:37:35.859Z,93173.37
2018-03-16T03:40:03.435Z,93174.56
2018-03-16T03:42:31.024Z,93166.08
2018-03-16T03:44:58.599Z,93156.53
2018-03-16T03:47:26.149Z,93166.38
2018-03-16T03:49:53.742Z,93169.16
2018-03-16T03:52:21.308Z,93180.73
2018-03-16T03:54:48.858Z,93183.62
2018-03-16T03:57:16.745Z,93173.63
2018-03-16T03:59:44.300Z,93176.94
2018-03-16T04:02:11.860Z,93180.61
2018-03-16T04:04:39.433Z,93184.70
2018-03-16T04:07:06.987Z,93180.87
2018-03-16T04:09:34.551Z,93192.78
2018-03-16T04:12:02.161Z,93189.00
2018-03-16T04:14:29.716Z,93193.86
2018-03-16T04:16:57.286Z,93194.94
2018-03-16T04:19:24.884Z,93194.83
2018-03-16T04:21:52.424Z,93191.34
2018-03-16T04:24:19.974Z,93185.59
2018-03-16T04:26:47.572Z,93188.28
2018-03-16T04:29:15.112Z,93181.58
2018-03-16T04:31:42.671Z,93188.53
2018-03-16T04:34:10.386Z,93186.86
2018-03-16T04:36:37.943Z,93180.53
2018-03-16T04:39:05.518Z,93165.42
2018-03-16T04:41:33.105Z,93173.30
2018-03-16T04:44:00.654Z,93165.24
2018-03-16T04:46:28.193Z,93168.16
2018-03-16T04:48:55.786Z,93173.78
2018-03-16T04:51:23.316Z,93167.98
2018-03-16T04:53:50.873Z,93165.77
2018-03-16T04:56:18.602Z,93172.41
2018-03-16T04:58:46.149Z,93173.19
2018-03-16T05:01:13.776Z,93168.42
2018-03-16T05:03:41.306Z,93166.96
2018-03-16T05:06:08.864Z,93175.96
2018-03-16T05:08:36.407Z,93170.02
2018-03-16T05:11:03.986Z,93171.58
2018-03-16T05:13:31.532Z,93176.91
2018-03-16T05:15:59.101Z,93173.89
2018-03-16T05:18:27.007Z,93170.52
2018-03-16T05:20:54.587Z,93172.52
2018-03-16T05:23:22.149Z,93161.19
2018-03-16T05:25:49.733Z,93171.09
2018-03-16T05:28:17.307Z,93164.25
2018-03-16T05:30:44.865Z,93167.80
2018-03-16T05:33:12.456Z,93156.39
2018-03-16T05:35:40.004Z,93160.73
2018-03-16T05:38:07.551Z,93157.56
2018-03-16T05:40:35.131Z,93167.77
2018-03-16T05:43:02.691Z,93163.89
2018-03-16T05:45:30.240Z,93159.95
2018-03-16T05:47:57.813Z,93166.60
2018-03-16T05:50:25.355Z,93161.12
2018-03-16T05:52:52.909Z,93167.27
2018-03-16T05:55:20.489Z,93165.06
2018-03-16T05:57:48.035Z,93163.55
2018-03-16T06:00:15.584Z,93159.60
2018-03-16T06:02:43.315Z,93160.57
2018-03-16T06:05:10.866Z,93148.69
2018-03-16T06:07:38.438Z,93144.31
2018-03-16T06:10:06.163Z,93151.50
2018-03-16T06:12:33.711Z,93155.23
2018-03-16T06:15:01.262Z,93156.87
2018-03-16T06:17:28.842Z,93145.67
2018-03-16T06:19:56.406Z,93160.75
2018-03-16T06:22:23.950Z,93158.92
2018-03-16T06:24:51.534Z,93165.54
2018-03-16T06:27:19.088Z,93158.52
2018-03-16T06:29:46.650Z,93163.69
2018-03-16T06:32:14.358Z,93175.12
2018-03-16T06:34:41.919Z,93166.83
2018-03-16T06:37:09.471Z,93168.09
2018-03-16T06:39:37.194Z,93165.28
2018-03-16T06:42:04.759Z,93162.61
2018-03-16T06:44:32.455Z,93165.62
2018-03-16T06:47:00.324Z,93164.74
2018-03-16T06:49:27.885Z,93162.02
2018-03-16T06:51:55.514Z,93165.25
2018-03-16T06:54:23.229Z,93158.03
2018-03-16T06:56:50.782Z,93162.36
2018-03-16T06:59:18.344Z,93161.70
2018-03-16T07:01:46.031Z,93157.73
2018-03-16T07:04:13.583Z,93162.76
2018-03-16T07:06:41.126Z,93171.91
2018-03-16T07:09:08.815Z,93175.73
2018-03-16T07:11:36.367Z,93161.25
2018-03-16T07:14:03.917Z,93157.25
2018-03-16T07:16:31.514Z,93165.72
2018-03-16T07:18:59.074Z,93167.40
2018-03-16T07:21:26.620Z,93174.98
2018-03-16T07:23:54.222Z,93181.92
2018-03-16T07:26:21.767Z,93182.08
2018-03-16T07:28:49.315Z,93175.49
2018-03-16T07:31:17.051Z,93179.96
2018-03-16T07:33:44.604Z,93191.89
2018-03-16T07:36:12.154Z,93180.66
2018-03-16T07:38:39.749Z,93177.30
2018-03-16T07:41:07.301Z,93175.08
2018-03-16T07:43:34.876Z,93183.83
2018-03-16T07:46:03.364Z,93179.52
2018-03-16T07:48:30.916Z,93182.33
2018-03-16T07:50:58.462Z,93185.49
2018-03-16T07:53:26.344Z,93184.53
2018-03-16T07:55:53.882Z,93183.94
2018-03-16T07:58:21.424Z,93185.63
2018-03-16T08:00:49.002Z,93173.73
2018-03-16T08:03:16.548Z,93173.66
2018-03-16T08:05:44.103Z,93166.38
2018-03-16T08:08:11.648Z,93176.97
2018-03-16T08:10:39.203Z,93181.38
2018-03-16T08:13:06.796Z,93179.77
2018-03-16T08:15:34.346Z,93166.70
2018-03-16T08:18:01.894Z,93173.00
2018-03-16T08:20:29.533Z,93166.95
2018-03-16T08:22:57.082Z,93166.45
2018-03-16T08:25:24.679Z,93175.80
2018-03-16T08:27:52.415Z,93178.43
2018-03-16T08:30:19.979Z,93174.83
2018-03-16T08:32:47.526Z,93177.33
2018-03-16T08:35:15.406Z,93173.39
2018-03-16T08:37:42.957Z,93177.33
2018-03-16T08:40:10.512Z,93176.42
2018-03-16T08:42:38.258Z,93169.41
2018-03-16T08:45:05.804Z,93161.16
2018-03-16T08:47:33.360Z,93167.16
2018-03-16T08:50:01.084Z,93168.91
2018-03-16T08:52:28.658Z,93174.76
2018-03-16T08:54:56.202Z,93172.20
2018-03-16T08:57:23.795Z,93170.63
2018-03-16T08:59:51.350Z,93163.11
2018-03-16T09:02:18.902Z,93167.95
2018-03-16T09:04:46.536Z,93172.73
2018-03-16T09:07:14.100Z,93160.13
2018-03-16T09:09:41.645Z,93152.80
2018-03-16T09:12:09.237Z,93148.98
2018-03-16T09:14:36.796Z,93145.51
2018-03-16T09:17:04.373Z,93147.58
2018-03-16T09:19:32.095Z,93144.38
2018-03-16T09:21:59.633Z,93137.28
2018-03-16T09:24:27.193Z,93143.20
2018-03-16T09:26:54.913Z,93151.81
2018-03-16T09:29:22.467Z,93156.21
2018-03-16T09:31:50.018Z,93148.05
2018-03-16T09:34:17.747Z,93143.38
2018-03-16T09:36:45.298Z,93145.59
2018-03-16T09:39:12.852Z,93138.56
2018-03-16T09:41:40.529Z,93129.92
2018-03-16T09:44:09.082Z,93131.74
2018-03-16T09:46:36.635Z,93129.22
2018-03-16T09:49:04.362Z,93134.05
2018-03-16T09:51:31.913Z,93123.14
2018-03-16T09:53:59.466Z,93124.39
2018-03-16T09:56:27.067Z,93115.28
2018-03-16T09:58:54.632Z,93111.78
2018-03-16T10:01:22.179Z,93119.81
2018-03-16T10:03:49.773Z,93108.00
2018-03-16T10:06:17.340Z,93098.73
2018-03-16T10:08:44.889Z,93098.89
2018-03-16T10:11:12.642Z,93106.41
2018-03-16T10:13:40.195Z,93102.26
2018-03-16T10:16:07.780Z,93103.91
2018-03-16T10:18:35.378Z,93089.62
2018-03-16T10:21:02.934Z,93080.59
2018-03-16T10:23:30.481Z,93083.23
2018-03-16T10:25:58.078Z,93085.34
2018-03-16T10:28:25.647Z,93082.15
2018-03-16T10:30:53.208Z,93073.93
2018-03-16T10:33:20.802Z,93062.66
2018-03-16T10:35:48.351Z,93069.73
2018-03-16T10:38:15.894Z,93064.23
2018-03-16T10:40:43.506Z,93065.53
2018-03-16T10:43:11.058Z,93060.22
2018-03-16T10:45:38.614Z,93052.85
2018-03-16T10:48:06.214Z,93051.41
2018-03-16T10:50:33.767Z,93050.37
2018-03-16T10:53:01.338Z,93050.22
2018-03-16T10:55:29.247Z,93044.07
2018-03-16T10:57:56.798Z,93044.08
2018-03-16T11:00:29.802Z,93040.65
2018-03-16T11:03:03.020Z,93041.23
2018-03-16T11:05:30.613Z,93031.38
2018-03-16T11:07:58.179Z,93039.29
2018-03-16T11:10:25.766Z,93028.17
2018-03-16T11:12:53.323Z,93025.02
2018-03-16T11:15:21.795Z,93021.45
2018-03-16T11:17:49.538Z,92996.61
2018-03-16T11:20:17.090Z,93003.59
2018-03-16T11:22:44.640Z,93002.38
2018-03-16T11:25:12.214Z,93003.66
2018-03-16T11:27:39.775Z,92998.97
2018-03-16T11:30:07.317Z,92993.88
2018-03-16T11:32:34.994Z,92989.18
2018-03-16T11:35:02.540Z,92980.80
2018-03-16T11:37:30.101Z,92982.32
2018-03-16T11:39:57.852Z,92981.77
2018-03-16T11:42:25.404Z,92976.33
2018-03-16T11:44:52.955Z,92968.64
2018-03-16T11:47:20.531Z,92965.84
2018-03-16T11:49:48.082Z,92959.19
2018-03-16T11:52:15.630Z,92966.13
2018-03-16T11:54:43.218Z,92953.73
2018-03-16T11:57:10.767Z,92951.41
2018-03-16T11:59:38.377Z,92949.91
2018-03-16T12:02:05.973Z,92945.96
2018-03-16T12:04:33.527Z,92933.20
2018-03-16T12:07:01.094Z,92938.75
2018-03-16T12:09:28.822Z,92937.13
2018-03-16T12:11:56.363Z,92942.84
2018-03-16T12:14:23.905Z,92945.59
2018-03-16T12:16:51.508Z,92941.73
2018-03-16T12:19:19.059Z,92920.05
2018-03-16T12:21:46.615Z,92908.56
2018-03-16T12:24:14.235Z,92909.00
2018-03-16T12:26:41.796Z,92907.17
2018-03-16T12:29:09.338Z,92907.89
2018-03-16T12:31:36.914Z,92901.81
2018-03-16T12:34:04.523Z,92897.09
2018-03-16T12:36:32.221Z,92888.03
2018-03-16T12:38:59.759Z,92891.98
2018-03-16T12:41:27.343Z,92897.25
2018-03-16T12:43:54.922Z,92895.31
2018-03-16T12:46:22.474Z,92883.98
2018-03-16T12:48:50.031Z,92885.18
2018-03-16T12:51:17.597Z,92882.20
2018-03-16T12:53:45.142Z,92876.55
2018-03-16T12:56:12.725Z,92861.77
2018-03-16T12:58:40.458Z,92850.88
2018-03-16T13:01:08.018Z,92855.95
2018-03-16T13:03:35.572Z,92847.77
2018-03-16T13:06:03.154Z,92855.11
2018-03-16T13:08:30.709Z,92851.63
2018-03-16T13:10:58.320Z,92864.64
2018-03-16T13:13:25.866Z,92867.16
2018-03-16T13:15:53.418Z,92860.59
2018-03-16T13:18:21.086Z,92854.59
2018-03-16T13:20:48.622Z,92865.16
2018-03-16T13:23:16.172Z,92861.41
2018-03-16T13:25:43.790Z,92866.30
2018-03-16T13:28:11.334Z,92864.50
2018-03-16T13:30:38.882Z,92859.56
2018-03-16T13:33:06.815Z,92853.63
2018-03-16T13:35:34.397Z,92856.87
2018-03-16T13:38:01.956Z,92827.34
2018-03-16T13:40:29.698Z,92823.52
2018-03-16T13:42:57.239Z,92827.87
2018-03-16T13:45:24.784Z,92834.92
2018-03-16T13:47:53.272Z,92827.13
2018-03-16T13:50:20.805Z,92824.54
2018-03-16T13:52:48.370Z,92830.15
2018-03-16T13:55:16.233Z,92817.41
2018-03-16T13:57:43.787Z,92831.03
2018-03-16T14:00:11.349Z,92819.14
2018-03-16T14:02:38.928Z,92825.52
2018-03-16T14:05:06.482Z,92822.84
2018-03-16T14:07:34.044Z,92823.38
2018-03-16T14:10:01.622Z,92812.97
2018-03-16T14:12:29.188Z,92829.21
2018-03-16T14:14:56.776Z,92821.91
2018-03-16T14:17:24.373Z,92805.41
2018-03-16T14:19:51.926Z,92807.61
2018-03-16T14:22:19.499Z,92810.45
2018-03-16T14:24:47.396Z,92821.45
2018-03-16T14:27:14.943Z,92803.23
2018-03-16T14:29:42.494Z,92822.89
2018-03-16T14:32:10.069Z,92803.91
2018-03-16T14:34:37.624Z,92804.77
2018-03-16T14:37:05.175Z,92806.16
2018-03-16T14:39:32.746Z,92804.24
2018-03-16T14:42:00.291Z,92813.66
2018-03-16T14:44:27.838Z,92805.94
2018-03-16T14:46:55.712Z,92804.53
2018-03-16T14:49:23.288Z,92800.30
2018-03-16T14:51:50.850Z,92817.57
2018-03-16T14:54:18.448Z,92806.87
2018-03-16T14:56:45.993Z,92815.55
2018-03-16T14:59:13.587Z,92802.75
2018-03-16T15:01:41.284Z,92792.01
2018-03-16T15:04:08.859Z,92801.01
2018-03-16T15:06:36.403Z,92804.05
2018-03-16T15:09:04.012Z,92794.72
2018-03-16T15:11:31.569Z,92802.44
2018-03-16T15:13:59.217Z,92811.86
2018-03-16T15:16:26.762Z,92804.20
2018-03-16T15:18:54.306Z,92802.45
2018-03-16T15:21:22.187Z,92810.67
2018-03-16T15:23:49.744Z,92800.77
2018-03-16T15:26:17.279Z,92809.48
2018-03-16T15:28:45.764Z,92780.77
2018-03-16T15:31:13.311Z,92791.50
2018-03-16T15:33:40.859Z,92789.68
2018-03-16T15:36:08.741Z,92790.94
2018-03-16T15:38:36.316Z,92786.55
2018-03-16T15:41:03.871Z,92789.88
2018-03-16T15:43:31.601Z,92786.55
2018-03-16T15:45:59.157Z,92769.48
2018-03-16T15:48:26.707Z,92793.95
2018-03-16T15:50:54.290Z,92787.52
2018-03-16T15:53:21.847Z,92772.51
2018-03-16T15:55:49.399Z,92773.48
2018-03-16T15:58:17.001Z,92780.28
2018-03-16T16:00:44.561Z,92772.20
2018-03-16T16:03:12.120Z,92788.02
2018-03-16T16:05:39.728Z,92762.88
2018-03-16T16:08:07.287Z,92773.42
2018-03-16T16:10:34.836Z,92782.69
2018-03-16T16:13:02.578Z,92786.98
2018-03-16T16:15:30.159Z,92770.06
2018-03-16T16:17:57.723Z,92776.11
2018-03-16T16:20:25.458Z,92787.02
2018-03-16T16:22:53.021Z,92773.28
2018-03-16T16:25:20.577Z,92758.31
2018-03-16T16:27:48.335Z,92758.59
2018-03-16T16:30:15.927Z,92759.25
2018-03-16T16:32:43.500Z,92767.06
2018-03-16T16:35:11.189Z,92763.07
2018-03-16T16:37:38.776Z,92759.68
2018-03-16T16:40:06.378Z,92769.22
2018-03-16T16:42:33.967Z,92768.08
2018-03-16T16:45:01.526Z,92767.13
2018-03-16T16:47:29.078Z,92779.16
2018-03-16T16:49:56.873Z,92776.84
2018-03-16T16:52:24.434Z,92795.70
2018-03-16T16:54:52.069Z,92770.72
2018-03-16T16:57:19.758Z,92742.19
2018-03-16T16:59:47.332Z,92793.16
2018-03-16T17:02:14.890Z,92749.21
2018-03-16T17:04:42.467Z,92782.39
2018-03-16T17:07:10.031Z,92751.60
2018-03-16T17:09:37.577Z,92793.27
2018-03-16T17:12:05.280Z,92791.31
2018-03-16T17:14:32.822Z,92784.46
2018-03-16T17:17:00.443Z,92770.55
2018-03-16T17:19:27.998Z,92788.07
2018-03-16T17:21:55.547Z,92776.25
2018-03-16T17:24:23.103Z,92790.52
2018-03-16T17:26:50.827Z,92795.95
2018-03-16T17:29:18.380Z,92786.59
2018-03-16T17:31:45.936Z,92797.77
2018-03-16T17:34:13.963Z,92804.42
2018-03-16T17:36:41.522Z,92827.13
2018-03-16T17:39:09.066Z,92820.51
2018-03-16T17:41:36.669Z,92796.58
2018-03-16T17:44:04.232Z,92818.16
2018-03-16T17:46:31.788Z,92783.84
2018-03-16T17:48:59.530Z,92797.87
2018-03-16T17:51:27.089Z,92788.31
2018-03-16T17:53:54.682Z,92805.21
2018-03-16T17:56:22.574Z,92823.77
2018-03-16T17:58:50.120Z,92816.65
2018-03-16T18:01:18.204Z,92821.58
2018-03-16T18:03:46.107Z,92808.05
2018-03-16T18:06:13.706Z,92798.77
2018-03-16T18:08:41.305Z,92822.20
2018-03-16T18:11:09.033Z,92828.73
2018-03-16T18:13:36.628Z,92827.89
2018-03-16T18:16:04.199Z,92819.23
2018-03-16T18:18:32.129Z,92831.92
2018-03-16T18:20:59.691Z,92817.16
2018-03-16T18:23:27.247Z,92831.30
2018-03-16T18:25:54.956Z,92821.20
2018-03-16T18:28:22.519Z,92814.91
2018-03-16T18:30:50.124Z,92833.86
2018-03-16T18:33:17.730Z,92816.98
2018-03-16T18:35:45.300Z,92821.77
2018-03-16T18:38:12.870Z,92828.91
2018-03-16T18:40:40.607Z,92842.41
2018-03-16T18:43:08.169Z,92829.47
2018-03-16T18:45:35.738Z,92835.42
2018-03-16T18:48:03.434Z,92838.55
2018-03-16T18:50:30.982Z,92830.36
2018-03-16T18:52:58.562Z,92854.20
2018-03-16T18:55:26.288Z,92844.73
2018-03-16T18:57:53.855Z,92816.55
2018-03-16T19:00:21.489Z,92838.00
2018-03-16T19:02:49.184Z,92830.86
2018-03-16T19:05:16.725Z,92835.73
2018-03-16T19:07:44.265Z,92837.16
2018-03-16T19:10:12.107Z,92833.57
2018-03-16T19:12:39.658Z,92834.03
2018-03-16T19:15:07.225Z,92839.59
2018-03-16T19:17:34.960Z,92832.35
2018-03-16T19:20:02.528Z,92817.28
2018-03-16T19:22:30.092Z,92826.77
2018-03-16T19:24:57.688Z,92812.80
2018-03-16T19:27:25.244Z,92830.44
2018-03-16T19:29:52.804Z,92814.69
2018-03-16T19:32:20.697Z,92840.20
2018-03-16T19:34:48.258Z,92833.64
2018-03-16T19:37:15.810Z,92828.75
2018-03-16T19:39:43.422Z,92841.91
2018-03-16T19:42:10.971Z,92847.42
2018-03-16T19:44:38.540Z,92851.33
2018-03-16T19:47:06.119Z,92858.32
2018-03-16T19:49:33.687Z,92850.17
2018-03-16T19:52:01.251Z,92859.98
2018-03-16T19:54:28.984Z,92833.89
2018-03-16T19:56:56.536Z,92868.08
2018-03-16T19:59:24.121Z,92870.09
2018-03-16T20:01:51.727Z,92855.95
2018-03-16T20:04:19.294Z,92870.83
2018-03-16T20:06:46.846Z,92860.64
2018-03-16T20:09:14.406Z,92863.69
2018-03-16T20:11:41.962Z,92867.93
2018-03-16T20:14:09.831Z,92844.40
2018-03-16T20:16:37.414Z,92863.04
2018-03-16T20:19:04.982Z,92860.02
2018-03-16T20:21:32.560Z,92857.20
2018-03-16T20:24:00.114Z,92855.36
2018-03-16T20:26:27.707Z,92873.92
2018-03-16T20:28:55.396Z,92850.53
2018-03-16T20:31:23.081Z,92879.98
2018-03-16T20:33:50.646Z,92880.92
2018-03-16T20:36:18.229Z,92858.86
2018-03-16T20:38:45.815Z,92868.03
2018-03-16T20:41:13.364Z,92862.43
2018-03-16T20:43:41.242Z,92867.52
2018-03-16T20:46:08.819Z,92867.80
2018-03-16T20:48:36.402Z,92870.59
2018-03-16T20:51:04.092Z,92859.59
2018-03-16T20:53:31.655Z,92849.05
2018-03-16T20:55:59.227Z,92853.70
2018-03-16T20:58:26.803Z,92842.10
2018-03-16T21:00:54.380Z,92826.22
2018-03-16T21:03:21.967Z,92832.80
2018-03-16T21:05:49.723Z,92830.95
2018-03-16T21:08:17.289Z,92845.31
2018-03-16T21:10:44.867Z,92836.37
2018-03-16T21:13:12.608Z,92830.69
2018-03-16T21:15:40.232Z,92826.74
2018-03-16T21:18:07.789Z,92839.53
2018-03-16T21:20:35.414Z,92826.29
2018-03-16T21:23:02.973Z,92841.48
2018-03-16T21:25:30.543Z,92825.20
2018-03-16T21:27:58.260Z,92841.98
2018-03-16T21:30:25.801Z,92843.80
2018-03-16T21:32:53.347Z,92832.53
2018-03-16T21:35:21.259Z,92823.84
2018-03-16T21:37:48.860Z,92845.61
2018-03-16T21:40:16.409Z,92834.14
2018-03-16T21:42:44.001Z,92827.54
2018-03-16T21:45:11.566Z,92823.58
2018-03-16T21:47:39.138Z,92817.34
2018-03-16T21:50:06.743Z,92823.41
2018-03-16T21:52:34.293Z,92821.31
2018-03-16T21:55:01.865Z,92822.15
2018-03-16T21:57:29.465Z,92823.98
2018-03-16T21:59:57.027Z,92821.89
2018-03-16T22:02:24.590Z,92823.16
2018-03-16T22:04:52.306Z,92817.69
2018-03-16T22:07:19.875Z,92815.86
2018-03-16T22:09:47.431Z,92818.26
2018-03-16T22:12:15.222Z,92824.55
2018-03-16T22:14:42.777Z,92806.56
2018-03-16T22:17:10.320Z,92798.52
2018-03-16T22:19:37.914Z,92813.27
2018-03-16T22:22:05.464Z,92830.64
2018-03-16T22:24:33.011Z,92818.49
2018-03-16T22:27:00.600Z,92813.37
2018-03-16T22:29:28.169Z,92828.57
2018-03-16T22:31:55.719Z,92821.11
2018-03-16T22:34:23.300Z,92806.91
2018-03-16T22:36:50.850Z,92814.93
2018-03-16T22:39:18.407Z,92829.53
2018-03-16T22:41:45.977Z,92823.98
2018-03-16T22:44:13.532Z,92806.47
2018-03-16T22:46:41.086Z,92791.27
2018-03-16T22:49:08.676Z,92800.20
2018-03-16T22:51:36.246Z,92811.25
2018-03-16T22:54:03.798Z,92822.64
2018-03-16T22:56:31.382Z,92805.20
2018-03-16T22:58:58.946Z,92815.69
2018-03-16T23:01:26.490Z,92812.27
2018-03-16T23:03:54.062Z,92810.56
2018-03-16T23:06:21.655Z,92812.11
2018-03-16T23:08:49.202Z,92805.18
2018-03-16T23:11:16.775Z,92797.06
2018-03-16T23:13:44.326Z,92811.69
2018-03-16T23:16:11.871Z,92809.81
2018-03-16T23:18:39.608Z,92803.55
2018-03-16T23:21:07.150Z,92787.40
2018-03-16T23:23:34.696Z,92781.52
2018-03-16T23:26:02.337Z,92785.06
2018-03-16T23:28:29.907Z,92782.91
2018-03-16T23:30:57.453Z,92779.83
2018-03-16T23:33:25.243Z,92793.74
2018-03-16T23:35:52.791Z,92778.30
2018-03-16T23:38:20.332Z,92780.40
2018-03-16T23:40:48.079Z,92779.75
2018-03-16T23:43:15.625Z,92776.11
2018-03-16T23:45:43.171Z,92777.63
2018-03-16T23:48:10.739Z,92780.59
2018-03-16T23:50:38.289Z,92767.93
2018-03-16T23:53:05.830Z,92759.25
2018-03-16T23:55:33.406Z,92775.20
2018-03-16T23:58:00.953Z,92773.53
